Time;durP1;ratioP1;P1;durP2;ratioP2;P2;SDS_P1;SDS_P2;PMS_P1;PMS_P2;Temp;Humidity;BMP_temperature;BMP_pressure;BME280_temperature;BME280_humidity;BME280_pressure;Samples;Min_cycle;Max_cycle;Signal;HPM_P1;HPM_P2
2023/04/24 00:01:48;;;;;;;11.73;7.45;;;11.30;93.50;;;;;;5073530;28;20098;-82
2023/04/24 00:04:16;;;;;;;9.10;8.10;;;11.40;93.50;;;;;;5056619;28;20446;-81
2023/04/24 00:06:43;;;;;;;8.57;7.15;;;11.40;93.80;;;;;;5073003;28;20099;-80
2023/04/24 00:09:12;;;;;;;8.55;7.75;;;11.40;93.70;;;;;;5073361;28;20456;-80
2023/04/24 00:11:38;;;;;;;9.02;6.97;;;11.40;93.60;;;;;;5073344;28;20111;-80
2023/04/24 00:14:04;;;;;;;10.60;7.95;;;11.40;93.60;;;;;;5056139;28;20539;-81
2023/04/24 00:16:29;;;;;;;7.63;6.90;;;11.40;93.60;;;;;;5056209;28;20041;-81
2023/04/24 00:18:55;;;;;;;9.52;7.63;;;11.40;93.70;;;;;;5072922;28;20044;-80
2023/04/24 00:21:21;;;;;;;10.38;7.70;;;11.40;93.80;;;;;;5056131;28;20055;-80
2023/04/24 00:23:47;;;;;;;9.85;8.13;;;11.40;93.80;;;;;;5056190;28;20076;-80
2023/04/24 00:26:13;;;;;;;8.82;7.93;;;11.40;93.70;;;;;;5055887;28;20073;-81
2023/04/24 00:28:39;;;;;;;9.90;7.95;;;11.40;93.80;;;;;;5072802;28;20400;-81
2023/04/24 00:31:05;;;;;;;9.77;8.18;;;11.40;93.70;;;;;;5072662;28;20037;-81
2023/04/24 00:33:30;;;;;;;11.27;7.97;;;11.40;93.80;;;;;;5039678;28;20047;-81
2023/04/24 00:35:56;;;;;;;8.82;8.02;;;11.40;93.80;;;;;;5072643;28;20424;-80
2023/04/24 00:38:22;;;;;;;7.90;7.20;;;11.40;93.60;;;;;;5072651;28;20059;-80
2023/04/24 00:40:49;;;;;;;9.60;8.70;;;11.40;93.80;;;;;;5056101;28;20045;-80
2023/04/24 00:43:16;;;;;;;10.48;8.55;;;11.40;93.90;;;;;;5072158;28;20064;-80
2023/04/24 00:45:42;;;;;;;10.85;9.32;;;11.40;94.00;;;;;;5056116;28;20491;-80
2023/04/24 00:48:08;;;;;;;10.80;8.80;;;11.40;94.00;;;;;;5055674;28;20088;-80
2023/04/24 00:50:36;;;;;;;10.20;8.50;;;11.30;94.00;;;;;;5073648;28;20050;-80
2023/04/24 00:53:02;;;;;;;10.65;9.00;;;11.30;93.90;;;;;;5039585;28;20388;-81
2023/04/24 00:55:27;;;;;;;9.60;8.60;;;11.30;94.10;;;;;;5039215;28;20040;-80
2023/04/24 00:57:53;;;;;;;9.20;8.25;;;11.30;94.20;;;;;;5073450;28;20049;-80
2023/04/24 01:00:19;;;;;;;9.95;8.88;;;11.30;94.30;;;;;;5072270;28;20059;-81
2023/04/24 01:02:45;;;;;;;10.13;8.85;;;11.30;94.30;;;;;;5072352;28;20044;-80
2023/04/24 01:05:15;;;;;;;8.90;8.05;;;11.30;94.20;;;;;;5072225;28;20055;-80
2023/04/24 01:07:45;;;;;;;10.13;8.63;;;11.30;94.10;;;;;;5055733;28;20484;-80
2023/04/24 01:10:12;;;;;;;10.40;9.40;;;11.20;94.30;;;;;;5072259;28;20045;-80
2023/04/24 01:12:38;;;;;;;9.02;8.18;;;11.20;94.30;;;;;;5072535;28;20369;-80
2023/04/24 01:15:06;;;;;;;9.15;8.25;;;11.20;94.20;;;;;;5055646;28;20430;-81
2023/04/24 01:17:32;;;;;;;10.02;9.02;;;11.30;94.30;;;;;;5055501;28;20032;-81
2023/04/24 01:19:59;;;;;;;10.07;8.10;;;11.30;94.20;;;;;;5072060;28;20044;-81
2023/04/24 01:22:25;;;;;;;9.07;7.53;;;11.20;94.10;;;;;;5055755;28;20074;-80
2023/04/24 01:24:52;;;;;;;7.85;7.05;;;11.30;94.10;;;;;;5039667;28;20029;-80
2023/04/24 01:27:19;;;;;;;7.80;7.10;;;11.20;94.10;;;;;;5059837;28;20124;-80
2023/04/24 01:29:45;;;;;;;7.88;7.07;;;11.20;94.10;;;;;;5067120;28;20392;-80
2023/04/24 01:32:11;;;;;;;8.10;7.30;;;11.20;94.00;;;;;;5039501;28;20127;-81
2023/04/24 01:34:38;;;;;;;8.23;6.60;;;11.20;94.00;;;;;;5056125;28;20037;-80
2023/04/24 01:37:05;;;;;;;8.00;6.63;;;11.10;94.10;;;;;;5056006;28;20523;-81
2023/04/24 01:39:31;;;;;;;7.70;6.53;;;11.20;94.10;;;;;;5056009;28;20091;-82
2023/04/24 01:41:56;;;;;;;7.50;6.80;;;11.10;94.20;;;;;;5040096;28;20103;-81
2023/04/24 01:44:23;;;;;;;8.40;6.97;;;11.10;94.20;;;;;;5039386;28;20056;-80
2023/04/24 01:46:49;;;;;;;7.55;6.85;;;11.10;94.20;;;;;;5072393;28;20040;-80
2023/04/24 01:49:15;;;;;;;8.82;7.90;;;11.10;94.30;;;;;;5075777;28;20454;-81
2023/04/24 01:51:41;;;;;;;9.18;8.30;;;11.10;94.40;;;;;;5076139;28;20067;-80
2023/04/24 01:54:06;;;;;;;9.77;8.77;;;11.10;94.50;;;;;;5075926;28;20476;-81
2023/04/24 01:56:36;;;;;;;11.90;9.55;;;11.10;94.50;;;;;;5099594;28;20064;-79
2023/04/24 01:59:03;;;;;;;12.23;10.05;;;11.10;94.60;;;;;;5102387;28;20032;-79
2023/04/24 02:01:35;;;;;;;10.82;9.77;;;11.10;94.50;;;;;;5092416;28;20029;-80
2023/04/24 02:04:01;;;;;;;10.00;8.90;;;11.10;94.50;;;;;;5065078;28;20104;-79
2023/04/24 02:06:27;;;;;;;12.57;10.82;;;11.10;94.30;;;;;;5071687;28;20041;-80
2023/04/24 02:08:53;;;;;;;13.73;10.70;;;11.10;94.50;;;;;;5071212;28;20070;-80
2023/04/24 02:11:19;;;;;;;10.98;9.80;;;11.10;94.60;;;;;;5053885;28;20071;-80
2023/04/24 02:13:44;;;;;;;13.10;11.40;;;11.10;94.30;;;;;;5063444;28;20033;-80
2023/04/24 02:16:10;;;;;;;13.18;11.77;;;11.10;94.50;;;;;;5056034;28;20162;-80
2023/04/24 02:18:36;;;;;;;12.32;10.75;;;11.10;94.50;;;;;;5044714;28;20473;-81
2023/04/24 02:21:02;;;;;;;13.80;12.18;;;11.10;94.90;;;;;;5075719;28;20152;-80
2023/04/24 02:23:27;;;;;;;12.30;11.02;;;11.00;94.90;;;;;;5075914;28;20094;-80
2023/04/24 02:25:53;;;;;;;13.38;11.18;;;11.00;94.80;;;;;;5058724;28;20041;-81
2023/04/24 02:28:19;;;;;;;14.45;12.18;;;11.00;95.20;;;;;;5058846;28;20040;-81
2023/04/24 02:30:45;;;;;;;11.98;10.30;;;11.00;95.60;;;;;;5058710;28;20123;-80
2023/04/24 02:33:11;;;;;;;16.23;11.77;;;11.00;95.50;;;;;;5058620;28;20151;-80
2023/04/24 02:35:37;;;;;;;14.38;11.15;;;11.00;95.50;;;;;;5058494;28;20094;-81
2023/04/24 02:38:03;;;;;;;10.75;8.75;;;11.00;95.10;;;;;;5041119;28;20044;-81
2023/04/24 02:40:29;;;;;;;8.00;6.90;;;11.00;94.90;;;;;;5038690;28;20041;-81
2023/04/24 02:42:55;;;;;;;8.65;7.20;;;11.10;94.10;;;;;;5055103;28;20056;-81
2023/04/24 02:45:21;;;;;;;6.57;5.35;;;11.10;93.70;;;;;;5038632;28;20041;-81
2023/04/24 02:47:46;;;;;;;5.97;5.00;;;11.00;93.80;;;;;;5038261;28;20124;-81
2023/04/24 02:50:12;;;;;;;4.63;3.67;;;10.90;93.80;;;;;;5038601;28;20048;-82
2023/04/24 02:52:38;;;;;;;4.22;2.20;;;10.80;93.90;;;;;;5041096;28;20028;-82
2023/04/24 02:55:04;;;;;;;2.63;1.75;;;10.90;94.00;;;;;;5059653;28;20040;-81
2023/04/24 02:57:30;;;;;;;3.35;2.15;;;10.80;93.90;;;;;;5075134;28;20044;-81
2023/04/24 02:59:55;;;;;;;3.25;2.53;;;10.80;93.90;;;;;;5041549;28;20460;-81
2023/04/24 03:02:21;;;;;;;2.72;2.20;;;10.80;93.80;;;;;;5074801;28;20036;-80
2023/04/24 03:04:48;;;;;;;3.38;2.80;;;10.80;93.80;;;;;;5041569;28;20029;-82
2023/04/24 03:07:14;;;;;;;3.28;2.90;;;10.80;93.60;;;;;;5057917;28;20094;-81
2023/04/24 03:09:40;;;;;;;2.70;2.50;;;10.70;93.60;;;;;;5074193;28;20041;-80
2023/04/24 03:12:06;;;;;;;3.88;3.15;;;10.70;93.80;;;;;;5075148;28;20051;-81
2023/04/24 03:14:32;;;;;;;4.60;4.20;;;10.70;93.80;;;;;;5074973;28;20123;-81
2023/04/24 03:16:58;;;;;;;2.88;2.38;;;10.60;93.90;;;;;;5057910;28;20044;-80
2023/04/24 03:19:23;;;;;;;2.97;2.33;;;10.60;94.00;;;;;;5058483;28;20089;-79
2023/04/24 03:21:49;;;;;;;2.13;1.92;;;10.60;94.00;;;;;;5058633;28;20055;-80
2023/04/24 03:24:15;;;;;;;2.38;1.90;;;10.60;94.10;;;;;;5058038;28;20481;-80
2023/04/24 03:26:41;;;;;;;2.72;1.73;;;10.60;94.20;;;;;;5064505;28;20068;-80
2023/04/24 03:29:07;;;;;;;3.03;1.52;;;10.60;94.10;;;;;;5037521;28;20039;-80
2023/04/24 03:31:33;;;;;;;2.88;2.00;;;10.50;94.10;;;;;;5037506;28;20045;-80
2023/04/24 03:33:58;;;;;;;2.72;1.77;;;10.50;94.20;;;;;;5037384;28;20044;-80
2023/04/24 03:36:25;;;;;;;5.35;2.13;;;10.50;94.30;;;;;;5053916;28;20119;-80
2023/04/24 03:38:51;;;;;;;2.92;2.22;;;10.50;94.40;;;;;;5021807;28;20041;-82
2023/04/24 03:41:17;;;;;;;2.90;2.60;;;10.50;94.50;;;;;;5058867;28;20086;-80
2023/04/24 03:43:43;;;;;;;5.43;3.28;;;10.50;94.40;;;;;;5073788;28;20123;-80
2023/04/24 03:46:09;;;;;;;3.90;3.50;;;10.50;94.50;;;;;;5057198;28;20043;-81
2023/04/24 03:48:35;;;;;;;4.85;3.30;;;10.50;94.70;;;;;;5039739;28;20049;-80
2023/04/24 03:51:01;;;;;;;4.15;3.63;;;10.60;94.60;;;;;;5073661;28;20089;-81
2023/04/24 03:53:27;;;;;;;4.13;2.90;;;10.60;94.20;;;;;;5073521;28;20045;-80
2023/04/24 03:55:53;;;;;;;8.05;3.88;;;10.50;94.10;;;;;;5073722;28;20040;-81
2023/04/24 03:58:19;;;;;;;5.00;4.10;;;10.50;94.20;;;;;;5056750;28;20173;-81
2023/04/24 04:00:46;;;;;;;5.47;4.47;;;10.50;94.30;;;;;;5039885;28;20119;-80
2023/04/24 04:03:13;;;;;;;5.00;4.03;;;10.50;94.20;;;;;;5073698;28;20045;-80
2023/04/24 04:05:39;;;;;;;6.13;4.00;;;10.50;93.90;;;;;;5056768;28;20041;-81
2023/04/24 04:08:05;;;;;;;6.90;4.80;;;10.40;94.00;;;;;;5073264;28;20044;-81
2023/04/24 04:10:31;;;;;;;5.60;4.15;;;10.40;94.10;;;;;;5073211;28;20040;-80
2023/04/24 04:12:56;;;;;;;5.72;4.38;;;10.40;94.10;;;;;;5073246;28;20131;-80
2023/04/24 04:15:22;;;;;;;6.32;4.40;;;10.30;94.10;;;;;;5037674;28;20075;-82
2023/04/24 04:17:48;;;;;;;5.93;4.43;;;10.40;94.10;;;;;;5036227;28;20052;-81
2023/04/24 04:20:13;;;;;;;6.57;4.95;;;10.30;93.90;;;;;;5053445;28;20624;-81
2023/04/24 04:22:40;;;;;;;5.30;4.20;;;10.30;93.90;;;;;;5052768;28;20111;-80
2023/04/24 04:25:06;;;;;;;6.75;5.07;;;10.30;94.00;;;;;;5052166;28;20059;-82
2023/04/24 04:27:32;;;;;;;5.65;4.20;;;10.30;93.70;;;;;;5052554;28;20044;-80
2023/04/24 04:30:04;;;;;;;8.45;5.53;;;10.20;93.80;;;;;;5052599;28;20047;-80
2023/04/24 04:32:33;;;;;;;7.28;5.25;;;10.20;93.70;;;;;;5036901;28;20041;-82
2023/04/24 04:35:03;;;;;;;6.70;5.13;;;10.20;94.10;;;;;;5069381;28;20048;-81
2023/04/24 04:37:33;;;;;;;6.70;5.53;;;10.20;93.90;;;;;;5055571;28;20222;-82
2023/04/24 04:39:59;;;;;;;4.57;3.58;;;10.20;94.00;;;;;;5056131;28;20119;-80
2023/04/24 04:42:26;;;;;;;5.25;3.53;;;10.20;94.10;;;;;;5072950;28;20109;-80
2023/04/24 04:44:53;;;;;;;3.20;2.22;;;10.20;94.10;;;;;;5056444;28;20043;-81
2023/04/24 04:47:22;;;;;;;3.97;2.28;;;10.20;94.20;;;;;;5055838;28;21248;-80
2023/04/24 04:49:48;;;;;;;2.70;1.92;;;10.20;94.20;;;;;;5045813;28;20098;-81
2023/04/24 04:52:13;;;;;;;4.15;1.50;;;10.20;94.20;;;;;;5052565;28;20551;-81
2023/04/24 04:54:39;;;;;;;5.38;2.17;;;10.20;94.10;;;;;;5036309;28;20036;-80
2023/04/24 04:57:05;;;;;;;4.85;2.72;;;10.20;94.10;;;;;;5035842;28;20079;-81
2023/04/24 04:59:31;;;;;;;6.55;4.18;;;10.10;94.10;;;;;;5018965;28;20045;-82
2023/04/24 05:01:57;;;;;;;7.57;4.65;;;10.20;94.10;;;;;;5036172;28;20048;-81
2023/04/24 05:04:23;;;;;;;8.90;5.95;;;10.20;94.10;;;;;;5019456;28;20444;-80
2023/04/24 05:06:50;;;;;;;8.80;5.78;;;10.10;94.10;;;;;;5019134;28;20037;-81
2023/04/24 05:09:16;;;;;;;10.75;6.30;;;10.10;94.20;;;;;;5020412;28;20045;-80
2023/04/24 05:11:42;;;;;;;13.45;7.93;;;10.10;94.20;;;;;;5019639;28;20039;-81
2023/04/24 05:14:07;;;;;;;10.32;8.02;;;10.20;94.20;;;;;;5035844;28;20477;-81
2023/04/24 05:16:33;;;;;;;15.05;8.30;;;10.10;94.10;;;;;;5019289;28;20073;-80
2023/04/24 05:18:59;;;;;;;8.57;5.97;;;10.10;94.00;;;;;;5035649;28;20041;-80
2023/04/24 05:21:25;;;;;;;10.02;5.53;;;10.20;94.00;;;;;;5035913;28;20127;-80
2023/04/24 05:23:50;;;;;;;7.82;5.70;;;10.20;93.80;;;;;;5019452;28;20033;-81
2023/04/24 05:26:17;;;;;;;8.00;4.88;;;10.10;93.60;;;;;;5019029;28;20029;-81
2023/04/24 05:28:43;;;;;;;6.55;4.07;;;10.10;93.60;;;;;;5035436;28;20083;-79
2023/04/24 05:31:09;;;;;;;5.38;2.60;;;10.10;93.60;;;;;;5035516;28;20029;-80
2023/04/24 05:33:34;;;;;;;4.13;3.00;;;10.10;93.50;;;;;;5018915;28;20106;-80
2023/04/24 05:36:00;;;;;;;5.18;2.83;;;10.10;93.40;;;;;;5051915;28;20041;-79
2023/04/24 05:38:26;;;;;;;6.03;2.45;;;10.10;93.30;;;;;;5035342;28;20131;-81
2023/04/24 05:40:51;;;;;;;4.57;2.95;;;10.10;93.30;;;;;;5051933;28;20048;-80
2023/04/24 05:43:17;;;;;;;5.85;3.03;;;10.10;93.00;;;;;;5051890;28;20049;-80
2023/04/24 05:45:43;;;;;;;5.68;3.22;;;10.10;93.10;;;;;;5051842;28;20041;-79
2023/04/24 05:48:09;;;;;;;4.65;3.08;;;10.10;93.10;;;;;;5035411;28;20048;-79
2023/04/24 05:50:34;;;;;;;4.93;3.38;;;10.00;93.20;;;;;;5052201;28;20068;-80
2023/04/24 05:53:01;;;;;;;4.65;2.45;;;10.00;93.20;;;;;;5035520;28;20543;-79
2023/04/24 05:55:27;;;;;;;6.97;3.60;;;10.10;93.00;;;;;;5035641;28;20112;-80
2023/04/24 05:57:53;;;;;;;4.75;2.78;;;10.00;92.90;;;;;;5051878;28;20040;-80
2023/04/24 06:00:19;;;;;;;5.72;2.53;;;10.00;93.00;;;;;;5051984;28;20396;-80
2023/04/24 06:02:46;;;;;;;6.18;3.33;;;10.00;93.20;;;;;;5019151;28;20417;-79
2023/04/24 06:05:12;;;;;;;5.90;3.55;;;10.00;93.20;;;;;;5068357;28;20048;-80
2023/04/24 06:07:38;;;;;;;4.32;2.53;;;10.00;93.20;;;;;;5055363;28;20051;-79
2023/04/24 06:10:04;;;;;;;4.57;3.45;;;10.00;93.20;;;;;;5055063;28;20404;-80
2023/04/24 06:12:31;;;;;;;7.85;3.42;;;10.00;93.20;;;;;;5074789;28;20178;-80
2023/04/24 06:14:56;;;;;;;11.65;7.07;;;10.00;93.20;;;;;;5075707;28;20056;-80
2023/04/24 06:17:22;;;;;;;4.85;3.42;;;10.00;93.20;;;;;;5069172;28;20439;-79
2023/04/24 06:19:48;;;;;;;6.18;2.40;;;10.00;93.20;;;;;;5022667;28;20041;-79
2023/04/24 06:22:13;;;;;;;4.15;2.47;;;10.00;93.20;;;;;;5038728;28;20044;-80
2023/04/24 06:24:42;;;;;;;4.82;2.17;;;10.00;93.20;;;;;;5055405;28;20037;-80
2023/04/24 06:27:08;;;;;;;3.13;1.95;;;10.00;93.10;;;;;;5022361;28;20090;-78
2023/04/24 06:29:34;;;;;;;4.60;2.40;;;10.00;93.10;;;;;;5069999;28;20036;-79
2023/04/24 06:31:59;;;;;;;5.60;2.40;;;10.00;93.20;;;;;;5073012;28;20072;-78
2023/04/24 06:34:25;;;;;;;6.15;2.85;;;10.00;93.00;;;;;;5056386;28;20043;-80
2023/04/24 06:36:51;;;;;;;6.32;3.25;;;10.00;93.00;;;;;;5071890;28;20055;-79
2023/04/24 06:39:17;;;;;;;9.18;4.88;;;10.00;92.80;;;;;;5072983;28;20653;-78
2023/04/24 06:41:42;;;;;;;9.75;5.63;;;9.90;92.60;;;;;;5056274;28;20044;-78
2023/04/24 06:44:08;;;;;;;10.68;7.93;;;9.90;92.70;;;;;;5072257;28;20048;-78
2023/04/24 06:46:34;;;;;;;13.18;7.88;;;9.90;92.30;;;;;;5035823;22;20077;-79
2023/04/24 06:49:00;;;;;;;14.63;10.23;;;9.80;92.50;;;;;;4999277;28;20087;-78
2023/04/24 06:51:27;;;;;;;21.15;10.75;;;9.80;92.30;;;;;;5016187;28;20069;-79
2023/04/24 06:53:56;;;;;;;18.83;9.88;;;9.70;92.40;;;;;;5032870;28;20049;-79
2023/04/24 06:56:22;;;;;;;20.55;11.13;;;9.70;92.70;;;;;;5029118;28;20057;-80
2023/04/24 06:58:48;;;;;;;14.95;9.23;;;9.60;92.60;;;;;;5020937;28;20069;-78
2023/04/24 07:01:14;;;;;;;17.65;11.93;;;9.60;92.70;;;;;;5016814;28;20389;-80
2023/04/24 07:03:39;;;;;;;14.65;9.88;;;9.70;92.60;;;;;;4985222;28;20041;-79
2023/04/24 07:06:06;;;;;;;15.32;9.73;;;9.60;92.40;;;;;;5030699;28;20040;-79
2023/04/24 07:08:32;;;;;;;13.57;9.02;;;9.60;92.40;;;;;;5016535;28;20046;-78
2023/04/24 07:10:59;;;;;;;13.20;8.13;;;9.60;92.20;;;;;;4990107;28;20537;-78
2023/04/24 07:13:25;;;;;;;15.63;10.27;;;9.60;91.90;;;;;;5026226;28;20045;-80
2023/04/24 07:15:52;;;;;;;16.42;9.73;;;9.60;92.00;;;;;;5007977;28;20050;-79
2023/04/24 07:18:18;;;;;;;18.27;10.18;;;9.60;91.80;;;;;;5006423;28;20049;-77
2023/04/24 07:20:44;;;;;;;20.38;11.20;;;9.60;91.50;;;;;;5002842;28;20041;-79
2023/04/24 07:23:10;;;;;;;17.90;11.43;;;9.60;91.30;;;;;;5024723;28;20124;-79
2023/04/24 07:25:36;;;;;;;19.80;11.98;;;9.60;91.10;;;;;;5001929;28;20125;-78
2023/04/24 07:28:02;;;;;;;19.67;13.02;;;9.60;90.80;;;;;;5000730;28;20058;-79
2023/04/24 07:30:32;;;;;;;25.33;14.38;;;9.50;90.90;;;;;;4983495;28;20038;-80
2023/04/24 07:32:58;;;;;;;19.45;14.18;;;9.50;91.00;;;;;;5018440;28;20540;-80
2023/04/24 07:35:25;;;;;;;25.58;11.68;;;9.50;90.90;;;;;;5022054;28;20042;-80
2023/04/24 07:37:53;;;;;;;24.85;13.90;;;9.50;91.00;;;;;;4999258;28;20038;-80
2023/04/24 07:40:19;;;;;;;18.20;12.73;;;9.50;90.80;;;;;;5006537;28;20049;-79
2023/04/24 07:42:44;;;;;;;19.98;11.63;;;9.50;90.50;;;;;;5004805;28;20069;-79
2023/04/24 07:45:10;;;;;;;12.93;10.00;;;9.50;90.50;;;;;;4989345;28;20070;-78
2023/04/24 07:47:37;;;;;;;14.80;9.13;;;9.50;90.50;;;;;;5018892;28;20550;-82
2023/04/24 07:50:04;;;;;;;13.95;8.60;;;9.50;90.20;;;;;;5021336;28;20497;-78
2023/04/24 07:52:30;;;;;;;14.25;8.43;;;9.50;89.80;;;;;;5019685;28;20045;-81
2023/04/24 07:55:00;;;;;;;14.43;6.68;;;9.60;89.30;;;;;;5003435;28;20037;-81
2023/04/24 07:57:25;;;;;;;13.77;7.78;;;9.50;89.50;;;;;;5019683;28;20057;-80
2023/04/24 07:59:51;;;;;;;12.63;8.13;;;9.60;89.20;;;;;;5017957;28;20838;-77
2023/04/24 08:02:17;;;;;;;13.60;8.05;;;9.50;89.40;;;;;;5007052;28;20520;-78
2023/04/24 08:04:46;;;;;;;11.43;6.65;;;9.60;89.30;;;;;;5019493;28;20049;-78
2023/04/24 08:07:14;;;;;;;13.13;7.15;;;9.70;89.30;;;;;;4985968;28;20038;-80
2023/04/24 08:09:40;;;;;;;10.40;6.20;;;9.70;89.30;;;;;;5006051;28;20034;-78
2023/04/24 08:12:06;;;;;;;13.05;6.47;;;9.80;89.20;;;;;;5020488;28;20129;-79
2023/04/24 08:14:31;;;;;;;10.98;6.50;;;9.80;89.00;;;;;;5020792;28;20049;-79
2023/04/24 08:17:01;;;;;;;8.95;5.82;;;9.90;89.10;;;;;;5024552;28;20045;-78
2023/04/24 08:19:26;;;;;;;9.57;5.53;;;10.00;88.70;;;;;;5009858;28;20076;-80
2023/04/24 08:21:52;;;;;;;8.35;5.78;;;10.00;88.30;;;;;;5008156;28;20474;-79
2023/04/24 08:24:18;;;;;;;10.00;5.70;;;10.10;88.00;;;;;;5015157;28;20045;-79
2023/04/24 08:26:43;;;;;;;11.90;7.05;;;10.00;87.90;;;;;;5005041;28;20034;-78
2023/04/24 08:29:09;;;;;;;9.80;6.50;;;10.00;88.00;;;;;;5004106;28;20102;-79
2023/04/24 08:31:35;;;;;;;12.02;6.45;;;10.00;87.70;;;;;;5006702;28;20141;-79
2023/04/24 08:34:01;;;;;;;10.13;6.05;;;9.90;87.50;;;;;;5019839;28;20033;-79
2023/04/24 08:36:30;;;;;;;12.98;6.22;;;10.00;87.50;;;;;;5007278;28;20054;-80
2023/04/24 08:38:56;;;;;;;9.65;5.35;;;9.90;87.60;;;;;;4996702;28;20778;-79
2023/04/24 08:41:24;;;;;;;12.43;6.88;;;10.00;87.20;;;;;;5020818;28;20064;-79
2023/04/24 08:43:51;;;;;;;11.60;4.45;;;10.00;86.60;;;;;;5004068;28;20049;-80
2023/04/24 08:46:18;;;;;;;11.75;6.63;;;10.00;86.20;;;;;;4997966;28;20401;-79
2023/04/24 08:48:44;;;;;;;8.95;4.63;;;10.10;85.30;;;;;;5006959;28;20551;-78
2023/04/24 08:51:11;;;;;;;10.07;4.65;;;10.10;85.00;;;;;;5025431;28;20493;-79
2023/04/24 08:53:37;;;;;;;9.55;3.47;;;10.10;84.50;;;;;;5019230;28;20049;-79
2023/04/24 08:56:03;;;;;;;9.18;4.97;;;10.10;83.80;;;;;;5005996;28;20088;-78
2023/04/24 08:58:31;;;;;;;10.13;4.00;;;10.20;84.10;;;;;;5003561;28;20103;-80
2023/04/24 09:00:58;;;;;;;6.88;3.65;;;10.30;84.50;;;;;;5017067;28;20048;-79
2023/04/24 09:03:25;;;;;;;10.55;3.85;;;10.30;83.70;;;;;;5024891;28;20096;-79
2023/04/24 09:05:54;;;;;;;9.13;4.03;;;10.40;83.30;;;;;;5006663;28;20059;-79
2023/04/24 09:08:20;;;;;;;9.82;3.97;;;10.50;83.50;;;;;;5005589;28;20052;-79
2023/04/24 09:10:46;;;;;;;8.82;4.10;;;10.60;82.90;;;;;;5020452;28;20112;-80
2023/04/24 09:13:12;;;;;;;9.80;4.18;;;10.60;82.50;;;;;;5006987;28;20096;-80
2023/04/24 09:15:40;;;;;;;9.30;3.13;;;10.80;81.90;;;;;;4999271;28;20038;-80
2023/04/24 09:18:06;;;;;;;13.43;3.63;;;10.80;81.60;;;;;;5019973;28;20561;-81
2023/04/24 09:20:32;;;;;;;12.05;4.07;;;10.80;81.50;;;;;;5021512;28;20128;-79
2023/04/24 09:22:58;;;;;;;10.32;4.45;;;10.80;81.10;;;;;;5012607;28;20124;-80
2023/04/24 09:25:35;;;;;;;12.68;3.42;;;10.70;81.10;;;;;;5003136;28;20482;-80
2023/04/24 09:28:06;;;;;;;6.35;2.33;;;10.60;81.60;;;;;;4994218;28;20046;-80
2023/04/24 09:30:32;;;;;;;10.52;3.40;;;10.50;81.50;;;;;;5036024;28;20061;-78
2023/04/24 09:33:14;;;;;;;7.53;2.78;;;10.50;80.80;;;;;;5021257;28;20481;-78
2023/04/24 09:35:51;;;;;;;4.13;2.05;;;10.50;81.10;;;;;;5009711;28;20072;-79
2023/04/24 09:38:16;;;;;;;6.97;3.00;;;10.50;80.60;;;;;;5010107;28;20042;-79
2023/04/24 09:40:42;;;;;;;8.13;2.95;;;10.50;80.80;;;;;;5018757;28;20048;-79
2023/04/24 09:43:11;;;;;;;8.07;3.50;;;10.40;81.10;;;;;;5010595;28;20045;-79
2023/04/24 09:45:38;;;;;;;6.30;2.33;;;10.40;81.70;;;;;;5021365;28;20085;-78
2023/04/24 09:48:06;;;;;;;5.45;2.53;;;10.40;81.90;;;;;;5023751;28;20515;-79
2023/04/24 09:50:32;;;;;;;8.98;3.22;;;10.40;80.20;;;;;;5005161;28;21173;-80
2023/04/24 09:53:01;;;;;;;4.25;1.80;;;10.40;80.00;;;;;;5017946;28;20454;-79
2023/04/24 09:55:27;;;;;;;8.93;2.13;;;10.40;80.10;;;;;;5020082;28;20038;-78
2023/04/24 09:58:01;;;;;;;7.40;2.72;;;10.30;80.40;;;;;;4999641;28;20045;-79
2023/04/24 10:00:33;;;;;;;8.00;2.00;;;10.30;81.20;;;;;;5025265;28;20034;-79
2023/04/24 10:03:05;;;;;;;4.78;1.80;;;10.30;81.60;;;;;;5005909;28;20060;-80
2023/04/24 10:05:35;;;;;;;10.75;2.58;;;10.30;81.70;;;;;;5025853;28;20041;-79
2023/04/24 10:08:10;;;;;;;8.45;2.35;;;10.30;81.40;;;;;;5011234;28;20053;-79
2023/04/24 10:10:40;;;;;;;13.52;4.28;;;10.20;81.60;;;;;;5025481;28;20042;-79
2023/04/24 10:13:09;;;;;;;12.68;3.22;;;10.30;82.10;;;;;;5006720;28;20095;-79
2023/04/24 10:15:40;;;;;;;4.70;1.92;;;10.30;82.70;;;;;;5010550;28;20053;-79
2023/04/24 10:18:06;;;;;;;8.45;2.88;;;10.30;80.90;;;;;;5009444;28;20131;-78
2023/04/24 10:20:33;;;;;;;5.13;1.92;;;10.30;80.80;;;;;;5013534;28;20049;-80
2023/04/24 10:23:00;;;;;;;6.95;1.65;;;10.40;81.20;;;;;;5033547;28;20053;-79
2023/04/24 10:25:28;;;;;;;6.00;1.98;;;10.50;81.00;;;;;;5006951;28;20046;-80
2023/04/24 10:27:59;;;;;;;9.10;1.95;;;10.50;80.00;;;;;;5008358;28;20041;-79
2023/04/24 10:30:29;;;;;;;6.47;2.13;;;10.50;79.80;;;;;;5022747;28;20052;-80
2023/04/24 10:32:55;;;;;;;3.92;1.42;;;10.60;80.50;;;;;;5027560;28;20502;-80
2023/04/24 10:35:24;;;;;;;8.13;2.05;;;10.60;79.20;;;;;;5018577;28;20768;-80
2023/04/24 10:37:51;;;;;;;8.60;1.95;;;10.60;79.80;;;;;;5020895;28;20099;-79
2023/04/24 10:40:27;;;;;;;6.85;1.65;;;10.60;79.30;;;;;;5024244;28;20125;-79
2023/04/24 10:42:53;;;;;;;6.20;2.63;;;10.70;79.50;;;;;;5011001;28;20041;-80
2023/04/24 10:45:21;;;;;;;5.45;1.45;;;10.70;78.60;;;;;;5029903;28;20088;-80
2023/04/24 10:48:01;;;;;;;5.18;2.10;;;10.70;77.70;;;;;;5003174;28;20490;-79
2023/04/24 10:50:30;;;;;;;4.15;1.05;;;10.70;78.10;;;;;;5041335;28;20033;-79
2023/04/24 10:53:07;;;;;;;8.55;2.33;;;10.60;79.30;;;;;;5060929;28;20024;-78
2023/04/24 10:56:13;;;;;;;10.73;1.88;;;10.60;78.70;;;;;;5060541;28;20059;-79
2023/04/24 10:58:44;;;;;;;5.95;1.48;;;10.50;79.90;;;;;;5040702;28;20099;-81
2023/04/24 11:01:27;;;;;;;8.77;1.73;;;10.50;80.60;;;;;;5029502;28;20044;-80
2023/04/24 11:03:59;;;;;;;4.28;1.85;;;10.30;79.90;;;;;;5025003;28;20049;-79
2023/04/24 11:06:37;;;;;;;10.57;2.97;;;10.20;79.80;;;;;;5021100;28;20158;-80
2023/04/24 11:09:08;;;;;;;6.75;2.25;;;10.10;80.70;;;;;;5006198;28;20050;-81
2023/04/24 11:11:37;;;;;;;5.90;2.55;;;10.10;81.50;;;;;;5022680;28;20050;-79
2023/04/24 11:14:06;;;;;;;6.68;4.03;;;10.00;82.40;;;;;;5037766;28;20764;-79
2023/04/24 11:16:44;;;;;;;7.18;2.30;;;9.80;83.10;;;;;;5022243;28;20096;-79
2023/04/24 11:19:16;;;;;;;6.57;2.53;;;9.90;83.80;;;;;;5020029;28;20068;-79
2023/04/24 11:21:46;;;;;;;5.63;1.75;;;9.90;84.10;;;;;;5024270;28;20044;-79
2023/04/24 11:24:27;;;;;;;5.22;1.90;;;9.90;83.20;;;;;;5026836;28;20124;-80
2023/04/24 11:26:59;;;;;;;6.05;1.65;;;9.90;81.90;;;;;;4996352;28;20038;-80
2023/04/24 11:29:57;;;;;;;7.47;1.95;;;9.90;82.50;;;;;;5003287;28;20050;-79
2023/04/24 11:32:29;;;;;;;1.88;0.80;;;10.00;82.70;;;;;;4996007;28;20044;-80
2023/04/24 11:34:58;;;;;;;3.45;1.10;;;10.10;81.40;;;;;;5030855;28;20494;-80
2023/04/24 11:37:27;;;;;;;2.78;1.08;;;10.20;79.20;;;;;;5019187;28;20050;-79
2023/04/24 11:39:57;;;;;;;5.45;1.63;;;10.20;78.40;;;;;;5004729;28;20060;-80
2023/04/24 11:42:25;;;;;;;9.57;2.35;;;10.30;78.50;;;;;;5020741;28;20033;-80
2023/04/24 11:44:53;;;;;;;4.63;1.35;;;10.30;78.70;;;;;;5005235;28;20046;-81
2023/04/24 11:47:18;;;;;;;4.05;1.08;;;10.30;79.10;;;;;;5001856;28;20474;-81
2023/04/24 11:49:44;;;;;;;5.32;1.38;;;10.40;80.10;;;;;;5020283;28;20070;-81
2023/04/24 11:52:10;;;;;;;5.72;1.65;;;10.50;80.30;;;;;;5024579;28;20132;-81
2023/04/24 11:54:36;;;;;;;4.07;1.27;;;10.50;80.50;;;;;;5003884;28;20049;-81
2023/04/24 11:57:06;;;;;;;4.95;1.73;;;10.50;79.80;;;;;;5008005;28;20137;-81
2023/04/24 11:59:36;;;;;;;5.30;1.23;;;10.50;79.50;;;;;;4999991;28;20038;-80
2023/04/24 12:02:02;;;;;;;6.88;1.23;;;10.40;80.20;;;;;;5019921;28;20057;-81
2023/04/24 12:04:41;;;;;;;5.95;1.83;;;10.50;81.00;;;;;;5003490;28;20506;-80
2023/04/24 12:07:08;;;;;;;5.68;1.85;;;10.50;80.40;;;;;;4991897;28;20042;-80
2023/04/24 12:10:00;;;;;;;6.47;1.02;;;10.80;79.10;;;;;;5016090;28;20050;-80
2023/04/24 12:12:27;;;;;;;5.22;1.38;;;11.20;77.30;;;;;;4990691;28;20137;-81
2023/04/24 12:14:57;;;;;;;4.07;1.23;;;11.10;76.20;;;;;;4980118;28;20072;-80
2023/04/24 12:17:31;;;;;;;5.75;1.25;;;11.10;76.50;;;;;;5020932;28;20107;-81
2023/04/24 12:20:03;;;;;;;10.32;1.25;;;11.10;76.10;;;;;;5003158;28;20048;-80
2023/04/24 12:22:43;;;;;;;2.67;0.70;;;11.10;76.70;;;;;;5022824;28;20041;-80
2023/04/24 12:25:10;;;;;;;8.07;2.65;;;11.10;75.60;;;;;;5020011;28;20065;-81
2023/04/24 12:27:36;;;;;;;3.28;0.52;;;11.20;76.00;;;;;;5022604;28;20078;-80
2023/04/24 12:30:05;;;;;;;5.53;0.85;;;11.20;74.80;;;;;;5024243;28;20089;-79
2023/04/24 12:32:31;;;;;;;5.63;0.90;;;11.20;75.40;;;;;;4990272;28;20053;-81
2023/04/24 12:34:57;;;;;;;5.18;0.82;;;11.20;73.90;;;;;;4983265;28;20034;-80
2023/04/24 12:37:25;;;;;;;4.15;0.85;;;11.10;74.40;;;;;;5023138;28;20052;-81
2023/04/24 12:40:08;;;;;;;3.90;1.00;;;11.00;74.70;;;;;;4996833;28;20398;-81
2023/04/24 12:42:35;;;;;;;5.78;1.02;;;11.00;75.00;;;;;;4996597;28;20489;-81
2023/04/24 12:45:07;;;;;;;2.35;0.80;;;11.00;74.80;;;;;;5002381;28;20041;-80